Current Conditions
Mostly Scattered
Clouds



Pressure
29.9 (inHG) - 1012.52 (mb)
Visibility

9.9 (mimiles) - 16.0 (km)
   Temperature
88  °F
31°C
72  °F
Dewpoint
59  %
 Humidity
   Wind Speed
9  mph
8  kts
14  km/h
4.0  m/s
   Wind Direction
 180°
Due South
   Airport Data
KDWH
Location David Wayne Hooks Memorial Airport 4.4 mi (7.08 km)
Metar :KDWH 101753Z 18008KT 10SM SCT040 BKN050 31/22 A2990 RMK AO2 SLP124 T03110217 10317 20244 58002
Mon 10th May 12:53 pm
   Raw Metar Info
Raw METAR is the most common format in the world for the transmission of observational weather data. It is highly standardized through the International Civil Aviation Organization (ICAO), which allows it to be understood throughout most of the world.
   API Info
Data Provided by
https://www.checkwx.com/weather/KDWH
   © Info
CSS/SVG/PHP scripts were developed by weather34.com for use in the weather34 template © 2015-2021

Guide Info provided by Metar-Wikipedia